Air Quality Table

TIMESTAMP NO2 SO2 PM10 PM2.5 CO TEMP HUM AIRPRES WS WD NO
2022-01-24 01:00 16.32 µg/m3 0.43 µg/m3 9.22 µg/m3 3.4 µg/m3 0.24 mg/m3 11.99 °C 59.92 % 1,024.27 mbar 1.67 m/s 248.99 Deg 1.74 µg/m3
2022-01-23 01:00 23.74 µg/m3 0.36 µg/m3 12.23 µg/m3 5.5 µg/m3 0.34 mg/m3 11.99 °C 75.53 % 1,020.70 mbar 2 m/s 254.37 Deg 10.9 µg/m3
2022-01-22 01:00 39.21 µg/m3 0.65 µg/m3 13.02 µg/m3 5.78 µg/m3 0.28 mg/m3 12.46 °C 69.48 % 1,019.61 mbar 3.39 m/s 217.7 Deg 19 µg/m3
2022-01-21 01:00 55.67 µg/m3 0.88 µg/m3 17.91 µg/m3 9.01 µg/m3 0.35 mg/m3 12.32 °C 77.48 % 1,023.28 mbar 2.07 m/s 212.12 Deg 36.1 µg/m3
2022-01-20 01:00 55.26 µg/m3 1.02 µg/m3 16.26 µg/m3 7.99 µg/m3 0.39 mg/m3 13.05 °C 74.93 % 1,027.94 mbar 1.06 m/s 210.82 Deg 34.29 µg/m3
2022-01-19 01:00 27.87 µg/m3 0.33 µg/m3 14.73 µg/m3 7.14 µg/m3 0.34 mg/m3 12.91 °C 70.64 % 1,026.89 mbar 1.83 m/s 272.14 Deg 9.49 µg/m3
2022-01-18 01:00 28.1 µg/m3 0.3 µg/m3 12.04 µg/m3 5.46 µg/m3 0.3 mg/m3 12.96 °C 77.21 % 1,024.08 mbar 3.05 m/s 240.01 Deg 10.33 µg/m3
2022-01-17 01:00 47 µg/m3 0.92 µg/m3 17.05 µg/m3 9.19 µg/m3 0.42 mg/m3 11.49 °C 84.66 % 1,022.99 mbar 1.59 m/s 180.76 Deg 31 µg/m3
2022-01-16 01:00 51.83 µg/m3 0.88 µg/m3 17.4 µg/m3 9.04 µg/m3 0.44 mg/m3 10.59 °C 75.87 % 1,020.49 mbar 2.06 m/s 240.62 Deg 40.16 µg/m3
2022-01-15 01:00 22.01 µg/m3 0.31 µg/m3 14.08 µg/m3 6.34 µg/m3 0.27 mg/m3 12 °C 63.14 % 1,024.42 mbar 2.05 m/s 229.82 Deg 4.69 µg/m3
2022-01-14 01:00 10.96 µg/m3 0.19 µg/m3 12.54 µg/m3 5.66 µg/m3 0.28 mg/m3 12.3 °C 75.59 % 1,022.13 mbar 1.9 m/s 260.35 Deg 2.79 µg/m3
2022-01-13 01:00 40.66 µg/m3 0.96 µg/m3 16.86 µg/m3 8.05 µg/m3 0.4 mg/m3 12.16 °C 79.95 % 1,014.66 mbar 1.5 m/s 244.34 Deg 46.55 µg/m3
2022-01-12 01:00 8.52 µg/m3 0.44 µg/m3 10.65 µg/m3 4.26 µg/m3 0.25 mg/m3 13.25 °C 64.44 % 1,004.82 mbar 2.69 m/s 307.88 Deg 2.82 µg/m3
2022-01-11 01:00 9.84 µg/m3 0.14 µg/m3 8.88 µg/m3 3.14 µg/m3 0.22 mg/m3 11.55 °C 68.38 % 997.79 mbar 4.65 m/s 275.14 Deg 2.5 µg/m3
2022-01-10 01:00 3.97 µg/m3 0.11 µg/m3 9.01 µg/m3 3.28 µg/m3 0.2 mg/m3 13.26 °C 66.82 % 1,006.50 mbar 5.19 m/s 262.61 Deg 2.13 µg/m3
2022-01-09 01:00 4.29 µg/m3 0.06 µg/m3 9.09 µg/m3 3.3 µg/m3 0.22 mg/m3 13.43 °C 67.44 % 1,007.42 mbar 3.29 m/s 307.9 Deg 1.28 µg/m3
2022-01-08 01:00 9.85 µg/m3 0.09 µg/m3 9.73 µg/m3 3.97 µg/m3 0.22 mg/m3 13.42 °C 81.39 % 1,007.14 mbar 2.58 m/s 312.02 Deg 2.79 µg/m3
2022-01-07 01:00 34.87 µg/m3 0.65 µg/m3 16.07 µg/m3 7.51 µg/m3 0.31 mg/m3 13.95 °C 82.69 % 1,007.65 mbar 1.48 m/s 234.49 Deg 50.51 µg/m3
2022-01-06 01:00 24.11 µg/m3 0.2 µg/m3 12.04 µg/m3 5.61 µg/m3 0.23 mg/m3 15.71 °C 81.27 % 1,010.42 mbar 4.99 m/s 193.11 Deg 4.06 µg/m3
2022-01-05 01:00 12.41 µg/m3 0.1 µg/m3 13.09 µg/m3 6.5 µg/m3 0.2 mg/m3 14.82 °C 84.32 % 1,017.18 mbar 3.74 m/s 210.54 Deg 1.88 µg/m3
2022-01-04 01:00 7.35 µg/m3 0.03 µg/m3 10.13 µg/m3 4.28 µg/m3 0.2 mg/m3 14.23 °C 82.23 % 1,020.97 mbar 4 m/s 253.03 Deg 1.39 µg/m3
2022-01-03 01:00 31.72 µg/m3 0.27 µg/m3 14.29 µg/m3 7.27 µg/m3 0.31 mg/m3 14.4 °C 87.31 % 1,023.47 mbar 1.58 m/s 202.27 Deg 11.28 µg/m3
2022-01-02 01:00 18.16 µg/m3 0.16 µg/m3 14.19 µg/m3 7.35 µg/m3 0.24 mg/m3 14.74 °C 87.9 % 1,022.41 mbar 2.48 m/s 249.61 Deg 5.57 µg/m3
2022-01-01 01:00 40.3 µg/m3 0.42 µg/m3 16.64 µg/m3 8.48 µg/m3 0.4 mg/m3 13.97 °C 78.67 % 1,021.36 mbar 1.85 m/s 239.17 Deg 21.72 µg/m3
2021-12-31 01:00 20.27 µg/m3 0.08 µg/m3 13.36 µg/m3 6.32 µg/m3 0.26 mg/m3 15.96 °C 87.33 % 1,013.63 mbar 2.09 m/s 265.31 Deg 9.53 µg/m3
2021-12-30 01:00 4.19 µg/m3 -0.04 µg/m3 11.86 µg/m3 5.55 µg/m3 0.2 mg/m3 16.36 °C 82.13 % 1,011.13 mbar 5.5 m/s 265.39 Deg 0.73 µg/m3
2021-12-29 01:00 7.19 µg/m3 0.11 µg/m3 11.54 µg/m3 5.29 µg/m3 0.29 mg/m3 16.39 °C 79.95 % 1,010.42 mbar 6.36 m/s 248.04 Deg 3.56 µg/m3
2021-12-28 01:00 24.95 µg/m3 0.11 µg/m3 13.86 µg/m3 6.21 µg/m3 0.25 mg/m3 16.38 °C 81.73 % 1,011.35 mbar 3.06 m/s 229.22 Deg 6.71 µg/m3
2021-12-27 01:00 21.46 µg/m3 0.16 µg/m3 14.27 µg/m3 6.16 µg/m3 0.16 mg/m3 17.31 °C 75.41 % 1,012.18 mbar 3.46 m/s 189.61 Deg 5.6 µg/m3
2021-12-26 01:00 23.45 µg/m3 0.29 µg/m3 14.49 µg/m3 7 µg/m3 0.22 mg/m3 16.7 °C 81.05 % 1,015.19 mbar 3.74 m/s 182.95 Deg 7.58 µg/m3

It is to be noted that the data is provisional and subject to quality assurance procedures. For validated data kindly refer your request to contact.air@era.org.mt